createdAt,value
2023-06-11T00:00:22.679Z,99965.69
2023-06-11T00:03:24.814Z,99967.34
2023-06-11T00:06:27.112Z,99968.44
2023-06-11T00:09:29.801Z,99969.59
2023-06-11T00:12:33.876Z,99971.97
2023-06-11T00:15:36.063Z,99981.16
2023-06-11T00:18:41.897Z,99981.56
2023-06-11T00:21:45.058Z,99981.00
2023-06-11T00:24:47.467Z,99983.13
2023-06-11T00:27:49.436Z,99985.63
2023-06-11T00:30:51.336Z,99985.56
2023-06-11T00:33:53.409Z,99984.38
2023-06-11T00:36:55.322Z,99986.72
2023-06-11T00:39:57.510Z,99988.44
2023-06-11T00:42:59.382Z,99986.78
2023-06-11T00:46:03.684Z,99984.09
2023-06-11T00:49:05.913Z,99986.34
2023-06-11T00:52:11.834Z,99985.34
2023-06-11T00:55:14.214Z,99984.19
2023-06-11T00:58:18.691Z,99991.97
2023-06-11T01:01:27.634Z,99983.81
2023-06-11T01:04:30.572Z,99993.97
2023-06-11T01:07:35.382Z,99990.09
2023-06-11T01:10:37.308Z,99988.41
2023-06-11T01:13:39.276Z,99988.41
2023-06-11T01:16:49.149Z,99988.69
2023-06-11T01:19:54.140Z,99990.41
2023-06-11T01:23:15.504Z,99990.84
2023-06-11T01:26:19.733Z,99970.19
2023-06-11T01:29:21.751Z,99983.97
2023-06-11T01:32:26.079Z,99983.81
2023-06-11T01:35:28.475Z,99989.69
2023-06-11T01:38:36.227Z,99989.47
2023-06-11T01:41:38.250Z,99990.69
2023-06-11T01:44:40.234Z,99992.25
2023-06-11T01:47:44.424Z,99994.84
2023-06-11T01:50:46.642Z,99995.19
2023-06-11T01:53:48.707Z,99999.03
2023-06-11T01:56:51.098Z,100002.50
2023-06-11T01:59:52.959Z,99991.97
2023-06-11T02:02:54.891Z,100008.00
2023-06-11T02:05:56.826Z,100004.78
2023-06-11T02:08:58.656Z,99995.25
2023-06-11T02:12:00.773Z,99997.75
2023-06-11T02:15:02.652Z,99993.94
2023-06-11T02:18:04.643Z,99996.13
2023-06-11T02:21:06.588Z,100000.09
2023-06-11T02:24:08.613Z,100000.84
2023-06-11T02:27:10.933Z,100000.91
2023-06-11T02:30:13.143Z,100005.38
2023-06-11T02:33:15.036Z,100014.47
2023-06-11T02:36:16.873Z,100009.97
2023-06-11T02:39:19.019Z,100003.94
2023-06-11T02:42:23.017Z,100003.53
2023-06-11T02:45:25.011Z,100008.31
2023-06-11T02:48:26.846Z,99997.62
2023-06-11T02:51:28.781Z,100001.31
2023-06-11T02:54:32.831Z,100002.56
2023-06-11T02:57:35.136Z,100002.94
2023-06-11T03:00:37.230Z,99999.34
2023-06-11T03:03:39.117Z,99998.25
2023-06-11T03:06:43.242Z,100007.63
2023-06-11T03:09:47.445Z,100003.50
2023-06-11T03:12:49.326Z,100006.03
2023-06-11T03:15:51.342Z,100010.78
2023-06-11T03:18:53.414Z,100011.34
2023-06-11T03:21:55.573Z,100012.78
2023-06-11T03:24:57.456Z,100015.78
2023-06-11T03:27:59.433Z,100012.94
2023-06-11T03:31:01.585Z,100021.66
2023-06-11T03:34:04.437Z,100026.50
2023-06-11T03:37:06.469Z,100022.50
2023-06-11T03:40:08.989Z,100019.50
2023-06-11T03:43:10.899Z,100021.72
2023-06-11T03:46:12.871Z,100018.31
2023-06-11T03:49:14.802Z,100023.87
2023-06-11T03:52:17.526Z,100022.34
2023-06-11T03:55:22.432Z,100002.41
2023-06-11T03:58:27.156Z,100026.69
2023-06-11T04:01:29.142Z,100033.97
2023-06-11T04:04:31.236Z,100026.06
2023-06-11T04:07:33.435Z,100028.16
2023-06-11T04:10:35.559Z,100032.19
2023-06-11T04:13:37.521Z,100032.03
2023-06-11T04:16:41.971Z,100025.03
2023-06-11T04:19:43.844Z,100031.22
2023-06-11T04:22:45.947Z,100030.44
2023-06-11T04:25:50.216Z,100021.91
2023-06-11T04:28:54.137Z,100030.87
2023-06-11T04:31:56.184Z,100029.59
2023-06-11T04:34:58.246Z,100017.88
2023-06-11T04:38:00.222Z,100031.81
2023-06-11T04:41:05.752Z,100030.75
2023-06-11T04:44:07.877Z,100036.72
2023-06-11T04:47:09.768Z,100029.03
2023-06-11T04:50:11.717Z,100038.28
2023-06-11T04:53:14.067Z,100037.00
2023-06-11T04:56:16.226Z,100038.44
2023-06-11T04:59:18.136Z,100039.12
2023-06-11T05:02:20.862Z,100037.81
2023-06-11T05:05:22.798Z,100045.03
2023-06-11T05:08:28.158Z,100033.72
2023-06-11T05:11:30.058Z,100034.75
2023-06-11T05:14:31.920Z,100034.88
2023-06-11T05:17:34.169Z,100039.78
2023-06-11T05:20:36.723Z,100042.94
2023-06-11T05:23:40.412Z,100048.44
2023-06-11T05:26:42.333Z,100043.78
2023-06-11T05:29:46.218Z,100040.97
2023-06-11T05:32:48.451Z,100041.34
2023-06-11T05:35:52.309Z,100038.13
2023-06-11T05:38:54.462Z,100039.12
2023-06-11T05:41:56.461Z,100039.16
2023-06-11T05:44:58.421Z,100044.50
2023-06-11T05:48:00.764Z,100051.81
2023-06-11T05:51:02.775Z,100043.78
2023-06-11T05:54:05.592Z,100051.25
2023-06-11T05:57:17.962Z,100054.66
2023-06-11T06:00:19.922Z,100044.22
2023-06-11T06:03:22.252Z,100047.47
2023-06-11T06:06:24.213Z,100054.06
2023-06-11T06:09:26.119Z,100051.19
2023-06-11T06:12:28.065Z,100049.34
2023-06-11T06:15:29.916Z,100052.47
2023-06-11T06:18:33.592Z,100059.84
2023-06-11T06:21:35.867Z,100053.16
2023-06-11T06:24:37.776Z,100054.88
2023-06-11T06:27:39.695Z,100057.44
2023-06-11T06:30:41.588Z,100059.47
2023-06-11T06:33:43.615Z,100060.59
2023-06-11T06:36:46.263Z,100073.38
2023-06-11T06:39:48.242Z,100061.37
2023-06-11T06:42:50.223Z,100062.09
2023-06-11T06:45:52.111Z,100067.28
2023-06-11T06:48:54.113Z,100071.03
2023-06-11T06:51:58.572Z,100069.06
2023-06-11T06:55:00.433Z,100062.88
2023-06-11T06:58:02.463Z,100058.06
2023-06-11T07:01:06.659Z,100074.03
2023-06-11T07:04:08.590Z,100075.44
2023-06-11T07:07:10.949Z,100060.94
2023-06-11T07:10:13.499Z,100084.13
2023-06-11T07:13:16.702Z,100079.44
2023-06-11T07:16:18.882Z,100087.63
2023-06-11T07:19:20.942Z,100080.28
2023-06-11T07:22:22.875Z,100078.09
2023-06-11T07:25:24.734Z,100080.50
2023-06-11T07:28:26.896Z,100069.94
2023-06-11T07:31:28.886Z,100072.41
2023-06-11T07:34:30.768Z,100071.13
2023-06-11T07:37:33.203Z,100065.88
2023-06-11T07:40:35.160Z,100060.31
2023-06-11T07:43:37.226Z,100064.53
2023-06-11T07:46:39.117Z,100058.47
2023-06-11T07:49:41.188Z,100065.47
2023-06-11T07:52:43.162Z,100046.06
2023-06-11T07:55:45.022Z,100062.66
2023-06-11T07:58:46.965Z,100066.69
2023-06-11T08:01:48.987Z,100072.19
2023-06-11T08:04:51.468Z,100075.72
2023-06-11T08:07:53.485Z,100069.59
2023-06-11T08:10:55.706Z,100078.75
2023-06-11T08:13:57.639Z,100070.50
2023-06-11T08:16:59.765Z,100087.31
2023-06-11T08:20:01.935Z,100085.19
2023-06-11T08:23:03.880Z,100083.97
2023-06-11T08:26:06.244Z,100084.94
2023-06-11T08:29:08.119Z,100085.03
2023-06-11T08:32:10.237Z,100088.59
2023-06-11T08:35:12.203Z,100080.34
2023-06-11T08:38:14.310Z,100084.03
2023-06-11T08:41:17.124Z,100085.97
2023-06-11T08:44:19.113Z,100088.47
2023-06-11T08:47:21.098Z,100090.50
2023-06-11T08:50:23.369Z,100093.34
2023-06-11T08:53:26.944Z,100093.72
2023-06-11T08:56:29.152Z,100091.87
2023-06-11T08:59:31.038Z,100091.69
2023-06-11T09:02:33.053Z,100085.78
2023-06-11T09:05:36.507Z,100089.81
2023-06-11T09:08:38.436Z,100094.44
2023-06-11T09:11:40.634Z,100092.03
2023-06-11T09:14:51.596Z,100089.62
2023-06-11T09:17:53.427Z,100089.09
2023-06-11T09:21:02.277Z,100096.31
2023-06-11T09:24:10.599Z,100094.19
2023-06-11T09:27:13.246Z,100090.63
2023-06-11T09:30:18.558Z,100090.63
2023-06-11T09:33:20.649Z,100101.97
2023-06-11T09:36:23.099Z,100095.56
2023-06-11T09:39:25.131Z,100098.09
2023-06-11T09:42:27.919Z,100093.88
2023-06-11T09:45:32.829Z,100096.75
2023-06-11T09:48:34.849Z,100101.13
2023-06-11T09:51:36.975Z,100104.00
2023-06-11T09:54:39.115Z,100098.81
2023-06-11T09:57:41.662Z,100099.28
2023-06-11T10:00:44.289Z,100108.88
2023-06-11T10:03:46.940Z,100100.88
2023-06-11T10:06:49.332Z,100088.84
2023-06-11T10:09:51.878Z,100095.13
2023-06-11T10:12:54.456Z,100089.47
2023-06-11T10:15:58.773Z,100090.34
2023-06-11T10:19:07.774Z,100088.16
2023-06-11T10:22:09.837Z,100095.38
2023-06-11T10:25:11.848Z,100090.16
2023-06-11T10:28:14.501Z,100092.53
2023-06-11T10:31:26.447Z,100091.59
2023-06-11T10:34:30.591Z,100086.69
2023-06-11T10:37:36.817Z,100073.75
2023-06-11T10:40:39.106Z,100082.81
2023-06-11T10:43:41.772Z,100086.97
2023-06-11T10:46:47.492Z,100082.16
2023-06-11T10:49:50.416Z,100087.13
2023-06-11T10:52:53.301Z,100090.00
2023-06-11T10:55:55.224Z,100085.13
2023-06-11T10:58:57.327Z,100081.44
2023-06-11T11:01:59.217Z,100086.28
2023-06-11T11:05:01.368Z,100081.28
2023-06-11T11:08:05.409Z,100080.00
2023-06-11T11:11:09.818Z,100093.38
2023-06-11T11:14:11.756Z,100084.59
2023-06-11T11:17:16.223Z,100089.16
2023-06-11T11:20:18.804Z,100081.34
2023-06-11T11:23:20.914Z,100082.75
2023-06-11T11:26:22.904Z,100078.91
2023-06-11T11:29:25.124Z,100086.62
2023-06-11T11:32:27.932Z,100083.12
2023-06-11T11:35:30.231Z,100080.25
2023-06-11T11:38:36.865Z,100085.63
2023-06-11T11:41:48.814Z,100079.59
2023-06-11T11:44:51.025Z,100075.19
2023-06-11T11:47:53.429Z,100069.12
2023-06-11T11:51:07.814Z,100065.31
2023-06-11T11:54:13.914Z,100068.06
2023-06-11T11:57:19.736Z,100064.19
2023-06-11T12:00:27.668Z,100066.44
2023-06-11T12:03:29.961Z,100054.84
2023-06-11T12:06:32.282Z,100057.59
2023-06-11T12:09:38.445Z,100052.56
2023-06-11T12:12:40.311Z,100072.03
2023-06-11T12:15:42.300Z,100059.50
2023-06-11T12:18:44.484Z,100060.25
2023-06-11T12:21:49.080Z,100051.59
2023-06-11T12:24:51.957Z,100066.25
2023-06-11T12:27:55.532Z,100051.19
2023-06-11T12:30:58.172Z,100045.59
2023-06-11T12:34:00.203Z,100045.22
2023-06-11T12:37:02.410Z,100036.38
2023-06-11T12:40:05.475Z,100050.78
2023-06-11T12:43:07.458Z,100055.69
2023-06-11T12:46:11.808Z,100055.19
2023-06-11T12:49:14.456Z,100050.16
2023-06-11T12:52:16.843Z,100048.66
2023-06-11T12:55:21.943Z,100045.88
2023-06-11T12:58:23.881Z,100042.34
2023-06-11T13:01:25.838Z,100046.84
2023-06-11T13:04:28.044Z,100046.22
2023-06-11T13:07:30.008Z,100054.00
2023-06-11T13:10:31.862Z,100048.59
2023-06-11T13:13:33.823Z,100052.47
2023-06-11T13:16:36.079Z,100038.81
2023-06-11T13:19:38.003Z,100045.47
2023-06-11T13:22:39.956Z,100045.88
2023-06-11T13:25:41.911Z,100038.94
2023-06-11T13:28:45.234Z,100051.25
2023-06-11T13:31:47.283Z,100042.03
2023-06-11T13:34:49.332Z,100040.50
2023-06-11T13:37:51.464Z,100041.38
2023-06-11T13:40:53.391Z,100035.09
2023-06-11T13:43:55.593Z,100037.78
2023-06-11T13:46:57.595Z,100033.94
2023-06-11T13:49:59.500Z,100030.25
2023-06-11T13:53:03.822Z,100030.41
2023-06-11T13:56:07.455Z,100036.87
2023-06-11T13:59:09.322Z,100034.16
2023-06-11T14:02:11.374Z,100036.31
2023-06-11T14:05:13.390Z,100034.63
2023-06-11T14:08:18.954Z,100040.47
2023-06-11T14:11:21.140Z,100042.19
2023-06-11T14:14:24.372Z,100027.50
2023-06-11T14:17:26.647Z,100042.53
2023-06-11T14:20:28.785Z,100044.34
2023-06-11T14:23:33.540Z,100042.88
2023-06-11T14:26:35.596Z,100043.69
2023-06-11T14:29:37.585Z,100048.44
2023-06-11T14:32:39.658Z,100045.91
2023-06-11T14:35:42.755Z,100051.78
2023-06-11T14:38:44.864Z,100048.94
2023-06-11T14:41:46.769Z,100048.41
2023-06-11T14:44:51.395Z,100051.88
2023-06-11T14:47:53.430Z,100046.09
2023-06-11T14:50:55.830Z,100056.78
2023-06-11T14:53:58.449Z,100041.19
2023-06-11T14:57:00.681Z,100048.41
2023-06-11T15:00:05.626Z,100064.09
2023-06-11T15:03:11.996Z,100068.09
2023-06-11T15:06:14.875Z,100063.19
2023-06-11T15:09:16.903Z,100044.31
2023-06-11T15:12:18.844Z,100060.72
2023-06-11T15:15:21.012Z,100060.47
2023-06-11T15:18:23.010Z,100063.41
2023-06-11T15:21:24.947Z,100062.12
2023-06-11T15:24:26.883Z,100076.72
2023-06-11T15:27:28.724Z,100074.97
2023-06-11T15:30:30.750Z,100079.75
2023-06-11T15:33:33.146Z,100086.00
2023-06-11T15:36:35.026Z,100096.50
2023-06-11T15:39:36.979Z,100106.06
2023-06-11T15:42:40.110Z,100088.59
2023-06-11T15:45:42.110Z,100097.28
2023-06-11T15:48:44.069Z,100098.94
2023-06-11T15:51:47.781Z,100090.25
2023-06-11T15:54:51.043Z,100105.75
2023-06-11T15:57:53.072Z,100106.38
2023-06-11T16:00:55.140Z,100109.53
2023-06-11T16:03:58.954Z,100124.06
2023-06-11T16:07:06.414Z,100115.09
2023-06-11T16:10:10.089Z,100122.19
2023-06-11T16:13:14.234Z,100133.59
2023-06-11T16:16:16.173Z,100134.97
2023-06-11T16:19:18.317Z,100143.13
2023-06-11T16:22:20.361Z,100132.69
2023-06-11T16:25:22.273Z,100134.72
2023-06-11T16:28:24.225Z,100130.94
2023-06-11T16:31:26.225Z,100144.75
2023-06-11T16:34:28.366Z,100149.37
2023-06-11T16:37:30.278Z,100148.44
2023-06-11T16:40:32.297Z,100147.22
2023-06-11T16:43:34.307Z,100151.09
2023-06-11T16:46:36.294Z,100152.81
2023-06-11T16:49:38.309Z,100159.97
2023-06-11T16:52:40.183Z,100156.84
2023-06-11T16:55:43.446Z,100160.94
2023-06-11T16:58:45.609Z,100161.78
2023-06-11T17:01:47.461Z,100152.56
2023-06-11T17:04:49.496Z,100145.25
2023-06-11T17:07:58.268Z,100158.22
2023-06-11T17:11:01.839Z,100163.56
2023-06-11T17:14:03.759Z,100168.66
2023-06-11T17:17:06.103Z,100167.09
2023-06-11T17:20:08.418Z,100169.41
2023-06-11T17:23:11.582Z,100166.44
2023-06-11T17:26:16.461Z,100165.44
2023-06-11T17:29:19.358Z,100175.34
2023-06-11T17:32:23.548Z,100173.94
2023-06-11T17:35:25.604Z,100170.97
2023-06-11T17:38:30.036Z,100175.69
2023-06-11T17:41:32.160Z,100175.47
2023-06-11T17:44:34.289Z,100167.69
2023-06-11T17:47:37.889Z,100180.38
2023-06-11T17:50:39.993Z,100177.50
2023-06-11T17:53:41.900Z,100192.00
2023-06-11T17:56:44.242Z,100175.84
2023-06-11T17:59:46.174Z,100195.28
2023-06-11T18:02:48.270Z,100200.22
2023-06-11T18:05:50.564Z,100197.63
2023-06-11T18:08:52.475Z,100196.28
2023-06-11T18:11:54.410Z,100197.03
2023-06-11T18:14:56.385Z,100194.59
2023-06-11T18:17:58.460Z,100190.84
2023-06-11T18:21:00.464Z,100186.91
2023-06-11T18:24:02.447Z,100197.13
2023-06-11T18:27:07.250Z,100202.09
2023-06-11T18:30:09.469Z,100210.59
2023-06-11T18:33:11.586Z,100215.47
2023-06-11T18:36:13.534Z,100222.59
2023-06-11T18:39:15.540Z,100217.34
2023-06-11T18:42:17.975Z,100218.00
2023-06-11T18:45:19.980Z,100240.37
2023-06-11T18:48:21.960Z,100236.41
2023-06-11T18:51:23.915Z,100235.03
2023-06-11T18:54:25.877Z,100238.72
2023-06-11T18:57:28.940Z,100233.72
2023-06-11T19:00:30.903Z,100241.16
2023-06-11T19:03:35.488Z,100249.00
2023-06-11T19:06:40.293Z,100253.38
2023-06-11T19:09:42.210Z,100253.19
2023-06-11T19:12:44.337Z,100250.69
2023-06-11T19:15:46.534Z,100258.25
2023-06-11T19:18:48.457Z,100246.81
2023-06-11T19:21:50.426Z,100260.78
2023-06-11T19:24:52.401Z,100265.59
2023-06-11T19:27:54.445Z,100267.00
2023-06-11T19:30:56.435Z,100271.91
2023-06-11T19:33:58.342Z,100264.16
2023-06-11T19:37:00.369Z,100274.47
2023-06-11T19:40:02.491Z,100274.34
2023-06-11T19:43:04.526Z,100277.69
2023-06-11T19:46:06.484Z,100287.19
2023-06-11T19:49:08.427Z,100288.25
2023-06-11T19:52:10.432Z,100281.72
2023-06-11T19:55:17.608Z,100289.62
2023-06-11T19:58:19.582Z,100282.59
2023-06-11T20:01:21.826Z,100281.44
2023-06-11T20:04:23.784Z,100288.09
2023-06-11T20:07:26.309Z,100284.72
2023-06-11T20:10:37.193Z,100292.22
2023-06-11T20:13:44.067Z,100286.16
2023-06-11T20:16:46.821Z,100287.63
2023-06-11T20:19:49.261Z,100283.75
2023-06-11T20:22:51.274Z,100293.25
2023-06-11T20:25:53.141Z,100301.37
2023-06-11T20:28:55.167Z,100297.19
2023-06-11T20:31:57.281Z,100291.53
2023-06-11T20:34:59.343Z,100301.97
2023-06-11T20:38:01.281Z,100301.22
2023-06-11T20:41:03.743Z,100309.25
2023-06-11T20:44:05.709Z,100298.78
2023-06-11T20:47:08.222Z,100295.44
2023-06-11T20:50:10.565Z,100299.78
2023-06-11T20:53:28.072Z,100300.22
2023-06-11T20:56:34.667Z,100292.50
2023-06-11T20:59:36.626Z,100293.94
2023-06-11T21:02:38.618Z,100289.09
2023-06-11T21:05:42.621Z,100292.13
2023-06-11T21:08:44.604Z,100287.75
2023-06-11T21:11:46.513Z,100293.00
2023-06-11T21:14:48.477Z,100291.22
2023-06-11T21:17:50.680Z,100303.81
2023-06-11T21:20:52.672Z,100315.16
2023-06-11T21:23:54.669Z,100310.25
2023-06-11T21:26:56.684Z,100311.09
2023-06-11T21:29:58.636Z,100310.16
2023-06-11T21:33:00.728Z,100312.09
2023-06-11T21:36:02.809Z,100309.25
2023-06-11T21:39:04.830Z,100318.34
2023-06-11T21:42:07.273Z,100321.56
2023-06-11T21:45:09.272Z,100310.81
2023-06-11T21:48:11.237Z,100313.75
2023-06-11T21:51:13.186Z,100306.41
2023-06-11T21:54:15.192Z,100308.97
2023-06-11T21:57:17.190Z,100307.12
2023-06-11T22:00:20.189Z,100306.81
2023-06-11T22:03:23.972Z,100304.72
2023-06-11T22:06:26.118Z,100306.25
2023-06-11T22:09:28.354Z,100303.09
2023-06-11T22:12:41.023Z,100304.47
2023-06-11T22:15:45.138Z,100301.06
2023-06-11T22:18:49.793Z,100295.50
2023-06-11T22:21:52.280Z,100297.63
2023-06-11T22:24:54.163Z,100296.19
2023-06-11T22:27:58.745Z,100295.63
2023-06-11T22:31:00.849Z,100287.66
2023-06-11T22:34:02.839Z,100288.03
2023-06-11T22:37:04.886Z,100293.00
2023-06-11T22:40:07.260Z,100291.56
2023-06-11T22:43:11.065Z,100296.00
2023-06-11T22:46:13.338Z,100296.22
2023-06-11T22:49:15.378Z,100293.31
2023-06-11T22:52:20.468Z,100293.69
2023-06-11T22:55:22.536Z,100288.22
2023-06-11T22:58:24.441Z,100290.12
2023-06-11T23:01:26.643Z,100282.16
2023-06-11T23:04:29.776Z,100288.66
2023-06-11T23:07:32.390Z,100284.19
2023-06-11T23:10:36.742Z,100278.38
2023-06-11T23:13:38.576Z,100275.66
2023-06-11T23:16:42.078Z,100263.94
2023-06-11T23:19:44.693Z,100269.62
2023-06-11T23:22:48.425Z,100261.44
2023-06-11T23:25:50.823Z,100270.66
2023-06-11T23:28:52.758Z,100271.63
2023-06-11T23:31:54.827Z,100272.69
2023-06-11T23:35:00.766Z,100270.31
2023-06-11T23:38:04.009Z,100269.59
2023-06-11T23:41:06.156Z,100268.78
2023-06-11T23:44:08.298Z,100270.25
2023-06-11T23:47:10.248Z,100268.69
2023-06-11T23:50:12.445Z,100266.53
2023-06-11T23:53:14.542Z,100270.84
2023-06-11T23:56:16.421Z,100277.19
2023-06-11T23:59:18.285Z,100265.50
